sensor_id;sensor_type;location;lat;lon;timestamp;temperature;humidity
17364;DHT22;8799;43.594;13.526;2022-07-22T00:00:07;26.70;64.20
17364;DHT22;8799;43.594;13.526;2022-07-22T00:02:36;26.70;63.50
17364;DHT22;8799;43.594;13.526;2022-07-22T00:05:05;26.70;63.00
17364;DHT22;8799;43.594;13.526;2022-07-22T00:07:34;26.70;64.40
17364;DHT22;8799;43.594;13.526;2022-07-22T00:10:02;26.70;64.00
17364;DHT22;8799;43.594;13.526;2022-07-22T00:12:30;26.70;63.90
17364;DHT22;8799;43.594;13.526;2022-07-22T00:14:57;26.60;63.80
17364;DHT22;8799;43.594;13.526;2022-07-22T00:17:25;26.60;64.00
17364;DHT22;8799;43.594;13.526;2022-07-22T00:19:54;26.60;64.80
17364;DHT22;8799;43.594;13.526;2022-07-22T00:22:22;26.60;65.40
17364;DHT22;8799;43.594;13.526;2022-07-22T00:24:50;26.50;65.20
17364;DHT22;8799;43.594;13.526;2022-07-22T00:27:18;26.50;65.80
17364;DHT22;8799;43.594;13.526;2022-07-22T00:29:45;26.50;68.10
17364;DHT22;8799;43.594;13.526;2022-07-22T00:32:13;26.50;69.90
17364;DHT22;8799;43.594;13.526;2022-07-22T00:34:40;26.60;70.50
17364;DHT22;8799;43.594;13.526;2022-07-22T00:37:10;26.70;70.20
17364;DHT22;8799;43.594;13.526;2022-07-22T00:39:38;26.70;70.30
17364;DHT22;8799;43.594;13.526;2022-07-22T00:42:06;26.70;70.60
17364;DHT22;8799;43.594;13.526;2022-07-22T00:44:34;26.70;69.80
17364;DHT22;8799;43.594;13.526;2022-07-22T00:47:02;26.50;69.40
17364;DHT22;8799;43.594;13.526;2022-07-22T00:49:30;26.40;69.90
17364;DHT22;8799;43.594;13.526;2022-07-22T00:51:58;26.40;69.60
17364;DHT22;8799;43.594;13.526;2022-07-22T00:54:27;26.40;69.60
17364;DHT22;8799;43.594;13.526;2022-07-22T00:56:55;26.30;70.40
17364;DHT22;8799;43.594;13.526;2022-07-22T00:59:23;26.30;71.00
17364;DHT22;8799;43.594;13.526;2022-07-22T01:01:51;26.30;71.10
17364;DHT22;8799;43.594;13.526;2022-07-22T01:04:19;26.20;72.60
17364;DHT22;8799;43.594;13.526;2022-07-22T01:06:48;26.30;73.30
17364;DHT22;8799;43.594;13.526;2022-07-22T01:09:16;26.20;73.50
17364;DHT22;8799;43.594;13.526;2022-07-22T01:11:46;26.20;73.20
17364;DHT22;8799;43.594;13.526;2022-07-22T01:14:13;26.20;73.10
17364;DHT22;8799;43.594;13.526;2022-07-22T01:16:41;26.10;73.20
17364;DHT22;8799;43.594;13.526;2022-07-22T01:19:09;26.10;73.00
17364;DHT22;8799;43.594;13.526;2022-07-22T01:21:39;26.10;72.20
17364;DHT22;8799;43.594;13.526;2022-07-22T01:24:07;26.10;71.90
17364;DHT22;8799;43.594;13.526;2022-07-22T01:26:35;26.00;71.40
17364;DHT22;8799;43.594;13.526;2022-07-22T01:29:03;26.00;71.10
17364;DHT22;8799;43.594;13.526;2022-07-22T01:31:31;26.00;71.30
17364;DHT22;8799;43.594;13.526;2022-07-22T01:33:58;26.00;72.00
17364;DHT22;8799;43.594;13.526;2022-07-22T01:36:26;25.90;72.10
17364;DHT22;8799;43.594;13.526;2022-07-22T01:38:55;25.90;72.10
17364;DHT22;8799;43.594;13.526;2022-07-22T01:41:23;25.90;71.90
17364;DHT22;8799;43.594;13.526;2022-07-22T01:43:51;25.80;71.60
17364;DHT22;8799;43.594;13.526;2022-07-22T01:46:19;25.80;71.90
17364;DHT22;8799;43.594;13.526;2022-07-22T01:48:49;25.80;71.90
17364;DHT22;8799;43.594;13.526;2022-07-22T01:51:17;25.70;71.90
17364;DHT22;8799;43.594;13.526;2022-07-22T01:53:45;25.70;71.90
17364;DHT22;8799;43.594;13.526;2022-07-22T01:56:15;25.80;72.00
17364;DHT22;8799;43.594;13.526;2022-07-22T01:58:42;25.70;72.10
17364;DHT22;8799;43.594;13.526;2022-07-22T02:01:10;25.70;72.30
17364;DHT22;8799;43.594;13.526;2022-07-22T02:03:38;25.70;72.40
17364;DHT22;8799;43.594;13.526;2022-07-22T02:06:07;25.60;72.80
17364;DHT22;8799;43.594;13.526;2022-07-22T02:08:35;25.60;73.20
17364;DHT22;8799;43.594;13.526;2022-07-22T02:11:03;25.60;73.80
17364;DHT22;8799;43.594;13.526;2022-07-22T02:13:32;25.60;74.30
17364;DHT22;8799;43.594;13.526;2022-07-22T02:16:00;25.60;74.70
17364;DHT22;8799;43.594;13.526;2022-07-22T02:18:28;25.60;74.70
17364;DHT22;8799;43.594;13.526;2022-07-22T02:20:55;25.50;74.40
17364;DHT22;8799;43.594;13.526;2022-07-22T02:23:23;25.50;74.70
17364;DHT22;8799;43.594;13.526;2022-07-22T02:25:52;25.50;75.20
17364;DHT22;8799;43.594;13.526;2022-07-22T02:28:19;25.50;75.50
17364;DHT22;8799;43.594;13.526;2022-07-22T02:30:49;25.50;75.30
17364;DHT22;8799;43.594;13.526;2022-07-22T02:33:16;25.40;75.50
17364;DHT22;8799;43.594;13.526;2022-07-22T02:35:43;25.40;75.70
17364;DHT22;8799;43.594;13.526;2022-07-22T02:38:11;25.40;75.50
17364;DHT22;8799;43.594;13.526;2022-07-22T02:40:39;25.40;75.70
17364;DHT22;8799;43.594;13.526;2022-07-22T02:43:06;25.40;75.70
17364;DHT22;8799;43.594;13.526;2022-07-22T02:45:35;25.40;75.50
17364;DHT22;8799;43.594;13.526;2022-07-22T02:48:05;25.40;75.50
17364;DHT22;8799;43.594;13.526;2022-07-22T02:50:33;25.40;75.50
17364;DHT22;8799;43.594;13.526;2022-07-22T02:53:01;25.40;75.70
17364;DHT22;8799;43.594;13.526;2022-07-22T02:55:28;25.40;75.70
17364;DHT22;8799;43.594;13.526;2022-07-22T02:57:58;25.40;75.70
17364;DHT22;8799;43.594;13.526;2022-07-22T03:00:31;25.40;75.80
17364;DHT22;8799;43.594;13.526;2022-07-22T03:02:58;25.40;75.90
17364;DHT22;8799;43.594;13.526;2022-07-22T03:05:27;25.40;76.10
17364;DHT22;8799;43.594;13.526;2022-07-22T03:07:55;25.30;76.20
17364;DHT22;8799;43.594;13.526;2022-07-22T03:10:22;25.30;76.30
17364;DHT22;8799;43.594;13.526;2022-07-22T03:12:50;25.20;76.50
17364;DHT22;8799;43.594;13.526;2022-07-22T03:15:18;25.20;76.80
17364;DHT22;8799;43.594;13.526;2022-07-22T03:17:46;25.20;77.20
17364;DHT22;8799;43.594;13.526;2022-07-22T03:20:13;25.20;77.30
17364;DHT22;8799;43.594;13.526;2022-07-22T03:22:42;25.20;77.50
17364;DHT22;8799;43.594;13.526;2022-07-22T03:25:10;25.20;77.60
17364;DHT22;8799;43.594;13.526;2022-07-22T03:27:38;25.20;77.70
17364;DHT22;8799;43.594;13.526;2022-07-22T03:30:11;25.30;77.30
17364;DHT22;8799;43.594;13.526;2022-07-22T03:32:38;25.50;76.80
17364;DHT22;8799;43.594;13.526;2022-07-22T03:35:10;25.60;76.50
17364;DHT22;8799;43.594;13.526;2022-07-22T03:37:38;25.70;76.30
17364;DHT22;8799;43.594;13.526;2022-07-22T03:40:09;25.80;76.00
17364;DHT22;8799;43.594;13.526;2022-07-22T03:42:37;25.80;75.80
17364;DHT22;8799;43.594;13.526;2022-07-22T03:45:05;25.90;75.60
17364;DHT22;8799;43.594;13.526;2022-07-22T03:47:34;25.90;75.40
17364;DHT22;8799;43.594;13.526;2022-07-22T03:50:02;26.00;75.90
17364;DHT22;8799;43.594;13.526;2022-07-22T03:52:31;26.00;75.70
17364;DHT22;8799;43.594;13.526;2022-07-22T03:54:58;26.00;75.70
17364;DHT22;8799;43.594;13.526;2022-07-22T03:57:28;26.00;75.60
17364;DHT22;8799;43.594;13.526;2022-07-22T03:59:55;26.10;75.60
17364;DHT22;8799;43.594;13.526;2022-07-22T04:02:23;26.10;75.50
17364;DHT22;8799;43.594;13.526;2022-07-22T04:04:50;26.10;75.60
17364;DHT22;8799;43.594;13.526;2022-07-22T04:07:18;26.10;75.50
17364;DHT22;8799;43.594;13.526;2022-07-22T04:09:46;26.10;75.60
17364;DHT22;8799;43.594;13.526;2022-07-22T04:12:13;26.20;75.50
17364;DHT22;8799;43.594;13.526;2022-07-22T04:14:43;26.20;75.50
17364;DHT22;8799;43.594;13.526;2022-07-22T04:17:10;26.20;75.50
17364;DHT22;8799;43.594;13.526;2022-07-22T04:19:38;26.20;75.30
17364;DHT22;8799;43.594;13.526;2022-07-22T04:22:05;26.20;75.30
17364;DHT22;8799;43.594;13.526;2022-07-22T04:24:33;26.30;75.40
17364;DHT22;8799;43.594;13.526;2022-07-22T04:27:01;26.30;75.30
17364;DHT22;8799;43.594;13.526;2022-07-22T04:29:29;26.30;75.30
17364;DHT22;8799;43.594;13.526;2022-07-22T04:31:58;26.30;75.20
17364;DHT22;8799;43.594;13.526;2022-07-22T04:34:26;26.30;75.20
17364;DHT22;8799;43.594;13.526;2022-07-22T04:36:53;26.30;75.10
17364;DHT22;8799;43.594;13.526;2022-07-22T04:39:22;26.30;75.10
17364;DHT22;8799;43.594;13.526;2022-07-22T04:41:50;26.30;75.10
17364;DHT22;8799;43.594;13.526;2022-07-22T04:44:18;26.40;75.20
17364;DHT22;8799;43.594;13.526;2022-07-22T04:46:46;26.40;75.20
17364;DHT22;8799;43.594;13.526;2022-07-22T04:49:16;26.40;75.10
17364;DHT22;8799;43.594;13.526;2022-07-22T04:51:44;26.40;75.20
17364;DHT22;8799;43.594;13.526;2022-07-22T04:54:12;26.40;75.20
17364;DHT22;8799;43.594;13.526;2022-07-22T04:56:41;26.40;75.20
17364;DHT22;8799;43.594;13.526;2022-07-22T04:59:08;26.40;75.20
17364;DHT22;8799;43.594;13.526;2022-07-22T05:01:36;26.40;75.20
17364;DHT22;8799;43.594;13.526;2022-07-22T05:04:04;26.40;75.30
17364;DHT22;8799;43.594;13.526;2022-07-22T05:06:34;26.40;75.40
17364;DHT22;8799;43.594;13.526;2022-07-22T05:09:02;26.50;75.40
17364;DHT22;8799;43.594;13.526;2022-07-22T05:11:29;26.50;75.50
17364;DHT22;8799;43.594;13.526;2022-07-22T05:13:57;26.50;75.90
17364;DHT22;8799;43.594;13.526;2022-07-22T05:16:25;26.40;76.00
17364;DHT22;8799;43.594;13.526;2022-07-22T05:18:53;26.30;76.20
17364;DHT22;8799;43.594;13.526;2022-07-22T05:21:20;26.30;76.50
17364;DHT22;8799;43.594;13.526;2022-07-22T05:23:50;26.20;77.50
17364;DHT22;8799;43.594;13.526;2022-07-22T05:26:18;26.30;77.20
17364;DHT22;8799;43.594;13.526;2022-07-22T05:28:45;26.30;78.00
17364;DHT22;8799;43.594;13.526;2022-07-22T05:31:13;26.20;78.60
17364;DHT22;8799;43.594;13.526;2022-07-22T05:33:40;26.20;79.00
17364;DHT22;8799;43.594;13.526;2022-07-22T05:36:08;26.20;79.10
17364;DHT22;8799;43.594;13.526;2022-07-22T05:38:37;26.20;79.50
17364;DHT22;8799;43.594;13.526;2022-07-22T05:41:06;26.20;80.10
17364;DHT22;8799;43.594;13.526;2022-07-22T05:43:33;26.10;80.60
17364;DHT22;8799;43.594;13.526;2022-07-22T05:46:02;26.10;80.50
17364;DHT22;8799;43.594;13.526;2022-07-22T05:48:30;26.10;81.20
17364;DHT22;8799;43.594;13.526;2022-07-22T05:50:58;26.10;81.80
17364;DHT22;8799;43.594;13.526;2022-07-22T05:53:25;26.10;81.80
17364;DHT22;8799;43.594;13.526;2022-07-22T05:55:53;26.10;81.70
17364;DHT22;8799;43.594;13.526;2022-07-22T05:58:22;26.10;82.00
17364;DHT22;8799;43.594;13.526;2022-07-22T06:00:49;26.10;82.00
17364;DHT22;8799;43.594;13.526;2022-07-22T06:03:17;26.20;81.80
17364;DHT22;8799;43.594;13.526;2022-07-22T06:05:49;26.20;80.60
17364;DHT22;8799;43.594;13.526;2022-07-22T06:08:19;26.20;80.70
17364;DHT22;8799;43.594;13.526;2022-07-22T06:10:47;26.30;80.70
17364;DHT22;8799;43.594;13.526;2022-07-22T06:13:15;26.20;80.60
17364;DHT22;8799;43.594;13.526;2022-07-22T06:15:45;26.30;80.10
17364;DHT22;8799;43.594;13.526;2022-07-22T06:18:13;26.30;80.10
17364;DHT22;8799;43.594;13.526;2022-07-22T06:20:41;26.30;80.00
17364;DHT22;8799;43.594;13.526;2022-07-22T06:23:10;26.40;79.60
17364;DHT22;8799;43.594;13.526;2022-07-22T06:25:38;26.40;79.80
17364;DHT22;8799;43.594;13.526;2022-07-22T06:28:06;26.40;79.20
17364;DHT22;8799;43.594;13.526;2022-07-22T06:30:38;26.40;79.80
17364;DHT22;8799;43.594;13.526;2022-07-22T06:33:08;26.40;79.50
17364;DHT22;8799;43.594;13.526;2022-07-22T06:35:38;26.50;79.40
17364;DHT22;8799;43.594;13.526;2022-07-22T06:38:06;26.50;79.00
17364;DHT22;8799;43.594;13.526;2022-07-22T06:40:35;26.50;78.40
17364;DHT22;8799;43.594;13.526;2022-07-22T06:43:03;26.50;77.10
17364;DHT22;8799;43.594;13.526;2022-07-22T06:45:31;26.50;76.00
17364;DHT22;8799;43.594;13.526;2022-07-22T06:47:59;26.60;74.60
17364;DHT22;8799;43.594;13.526;2022-07-22T06:50:28;26.60;72.90
17364;DHT22;8799;43.594;13.526;2022-07-22T06:52:56;26.60;72.40
17364;DHT22;8799;43.594;13.526;2022-07-22T06:55:25;26.60;71.90
17364;DHT22;8799;43.594;13.526;2022-07-22T06:57:54;26.70;71.50
17364;DHT22;8799;43.594;13.526;2022-07-22T07:00:23;26.70;71.70
17364;DHT22;8799;43.594;13.526;2022-07-22T07:02:51;26.70;72.00
17364;DHT22;8799;43.594;13.526;2022-07-22T07:05:19;26.70;71.50
17364;DHT22;8799;43.594;13.526;2022-07-22T07:07:48;26.70;71.30
17364;DHT22;8799;43.594;13.526;2022-07-22T07:10:16;26.70;70.60
17364;DHT22;8799;43.594;13.526;2022-07-22T07:12:44;26.80;70.00
17364;DHT22;8799;43.594;13.526;2022-07-22T07:15:13;26.70;69.40
17364;DHT22;8799;43.594;13.526;2022-07-22T07:17:40;26.70;68.80
17364;DHT22;8799;43.594;13.526;2022-07-22T07:20:09;26.80;68.40
17364;DHT22;8799;43.594;13.526;2022-07-22T07:22:38;26.80;68.20
17364;DHT22;8799;43.594;13.526;2022-07-22T07:25:08;26.80;68.20
17364;DHT22;8799;43.594;13.526;2022-07-22T07:27:36;26.90;68.10
17364;DHT22;8799;43.594;13.526;2022-07-22T07:30:06;26.90;67.90
17364;DHT22;8799;43.594;13.526;2022-07-22T07:32:38;26.90;68.10
17364;DHT22;8799;43.594;13.526;2022-07-22T07:35:16;26.90;67.90
17364;DHT22;8799;43.594;13.526;2022-07-22T07:37:50;26.90;67.80
17364;DHT22;8799;43.594;13.526;2022-07-22T07:40:20;26.90;67.60
17364;DHT22;8799;43.594;13.526;2022-07-22T07:42:48;26.90;67.60
17364;DHT22;8799;43.594;13.526;2022-07-22T07:45:16;27.00;68.20
17364;DHT22;8799;43.594;13.526;2022-07-22T07:47:44;27.00;68.20
17364;DHT22;8799;43.594;13.526;2022-07-22T07:50:12;27.00;68.30
17364;DHT22;8799;43.594;13.526;2022-07-22T07:52:40;27.00;68.80
17364;DHT22;8799;43.594;13.526;2022-07-22T07:55:09;27.00;69.30
17364;DHT22;8799;43.594;13.526;2022-07-22T07:57:40;27.00;70.20
17364;DHT22;8799;43.594;13.526;2022-07-22T08:00:11;27.10;71.50
17364;DHT22;8799;43.594;13.526;2022-07-22T08:02:39;27.10;72.70
17364;DHT22;8799;43.594;13.526;2022-07-22T08:05:08;27.10;74.20
17364;DHT22;8799;43.594;13.526;2022-07-22T08:07:48;27.20;75.00
17364;DHT22;8799;43.594;13.526;2022-07-22T08:10:44;27.30;75.60
17364;DHT22;8799;43.594;13.526;2022-07-22T08:13:13;27.20;76.10
17364;DHT22;8799;43.594;13.526;2022-07-22T08:15:59;27.30;76.10
17364;DHT22;8799;43.594;13.526;2022-07-22T08:18:27;27.30;75.70
17364;DHT22;8799;43.594;13.526;2022-07-22T08:20:56;27.20;74.40
17364;DHT22;8799;43.594;13.526;2022-07-22T08:23:24;27.30;72.50
17364;DHT22;8799;43.594;13.526;2022-07-22T08:25:52;27.30;70.30
17364;DHT22;8799;43.594;13.526;2022-07-22T08:28:21;27.30;68.10
17364;DHT22;8799;43.594;13.526;2022-07-22T08:30:50;27.30;66.10
17364;DHT22;8799;43.594;13.526;2022-07-22T08:33:19;27.30;64.80
17364;DHT22;8799;43.594;13.526;2022-07-22T08:35:47;27.30;63.20
17364;DHT22;8799;43.594;13.526;2022-07-22T08:38:24;27.30;62.30
17364;DHT22;8799;43.594;13.526;2022-07-22T08:40:53;27.30;60.70
17364;DHT22;8799;43.594;13.526;2022-07-22T08:43:24;27.40;60.80
17364;DHT22;8799;43.594;13.526;2022-07-22T08:45:55;27.40;59.90
17364;DHT22;8799;43.594;13.526;2022-07-22T08:48:27;27.40;60.90
17364;DHT22;8799;43.594;13.526;2022-07-22T08:50:55;27.50;60.50
17364;DHT22;8799;43.594;13.526;2022-07-22T08:53:23;27.50;59.40
17364;DHT22;8799;43.594;13.526;2022-07-22T08:55:52;27.50;59.10
17364;DHT22;8799;43.594;13.526;2022-07-22T08:58:20;27.50;58.20
17364;DHT22;8799;43.594;13.526;2022-07-22T09:01:04;27.60;57.90
17364;DHT22;8799;43.594;13.526;2022-07-22T09:03:43;27.60;56.90
17364;DHT22;8799;43.594;13.526;2022-07-22T09:06:11;27.60;56.60
17364;DHT22;8799;43.594;13.526;2022-07-22T09:08:51;27.60;56.10
17364;DHT22;8799;43.594;13.526;2022-07-22T09:11:20;27.60;55.50
17364;DHT22;8799;43.594;13.526;2022-07-22T09:13:48;27.70;55.30
17364;DHT22;8799;43.594;13.526;2022-07-22T09:16:39;27.70;55.40
17364;DHT22;8799;43.594;13.526;2022-07-22T09:19:07;27.70;54.90
17364;DHT22;8799;43.594;13.526;2022-07-22T09:21:36;27.70;54.80
17364;DHT22;8799;43.594;13.526;2022-07-22T09:24:05;27.70;54.10
17364;DHT22;8799;43.594;13.526;2022-07-22T09:26:37;27.70;53.40
17364;DHT22;8799;43.594;13.526;2022-07-22T09:29:06;27.70;53.10
17364;DHT22;8799;43.594;13.526;2022-07-22T09:31:36;27.70;52.90
17364;DHT22;8799;43.594;13.526;2022-07-22T09:34:06;27.80;52.90
17364;DHT22;8799;43.594;13.526;2022-07-22T09:36:54;27.80;52.70
17364;DHT22;8799;43.594;13.526;2022-07-22T09:39:25;27.90;52.10
17364;DHT22;8799;43.594;13.526;2022-07-22T09:41:57;27.90;51.60
17364;DHT22;8799;43.594;13.526;2022-07-22T09:44:26;27.90;51.60
17364;DHT22;8799;43.594;13.526;2022-07-22T09:46:53;27.90;50.30
17364;DHT22;8799;43.594;13.526;2022-07-22T09:49:32;27.90;49.60
17364;DHT22;8799;43.594;13.526;2022-07-22T09:52:02;27.90;48.80
17364;DHT22;8799;43.594;13.526;2022-07-22T09:54:30;27.90;48.10
17364;DHT22;8799;43.594;13.526;2022-07-22T09:56:58;27.90;47.80
17364;DHT22;8799;43.594;13.526;2022-07-22T09:59:26;27.90;47.70
17364;DHT22;8799;43.594;13.526;2022-07-22T10:01:56;27.90;47.00
17364;DHT22;8799;43.594;13.526;2022-07-22T10:04:28;27.90;46.60
17364;DHT22;8799;43.594;13.526;2022-07-22T10:07:01;28.00;46.90
17364;DHT22;8799;43.594;13.526;2022-07-22T10:09:30;28.00;47.00
17364;DHT22;8799;43.594;13.526;2022-07-22T10:11:58;28.00;47.10
17364;DHT22;8799;43.594;13.526;2022-07-22T10:14:27;28.00;47.10
17364;DHT22;8799;43.594;13.526;2022-07-22T10:16:56;28.00;47.50
17364;DHT22;8799;43.594;13.526;2022-07-22T10:19:29;28.00;47.60
17364;DHT22;8799;43.594;13.526;2022-07-22T10:21:59;28.00;46.70
17364;DHT22;8799;43.594;13.526;2022-07-22T10:24:27;28.10;46.90
17364;DHT22;8799;43.594;13.526;2022-07-22T10:26:57;28.20;45.90
17364;DHT22;8799;43.594;13.526;2022-07-22T10:29:29;28.20;45.70
17364;DHT22;8799;43.594;13.526;2022-07-22T10:32:23;28.30;45.80
17364;DHT22;8799;43.594;13.526;2022-07-22T10:35:22;28.20;46.30
17364;DHT22;8799;43.594;13.526;2022-07-22T10:37:56;28.20;46.20
17364;DHT22;8799;43.594;13.526;2022-07-22T10:40:26;28.20;46.30
17364;DHT22;8799;43.594;13.526;2022-07-22T10:43:10;28.10;46.20
17364;DHT22;8799;43.594;13.526;2022-07-22T10:45:41;28.10;46.10
17364;DHT22;8799;43.594;13.526;2022-07-22T10:48:12;28.10;46.00
17364;DHT22;8799;43.594;13.526;2022-07-22T10:50:51;28.10;46.50
17364;DHT22;8799;43.594;13.526;2022-07-22T10:53:24;28.10;46.10
17364;DHT22;8799;43.594;13.526;2022-07-22T10:56:21;28.20;46.20
17364;DHT22;8799;43.594;13.526;2022-07-22T10:58:55;28.20;46.10
17364;DHT22;8799;43.594;13.526;2022-07-22T11:01:25;28.20;46.20
17364;DHT22;8799;43.594;13.526;2022-07-22T11:03:55;28.20;46.20
17364;DHT22;8799;43.594;13.526;2022-07-22T11:06:28;28.10;46.10
17364;DHT22;8799;43.594;13.526;2022-07-22T11:09:01;28.10;46.00
17364;DHT22;8799;43.594;13.526;2022-07-22T11:11:36;28.10;46.20
17364;DHT22;8799;43.594;13.526;2022-07-22T11:14:15;28.10;46.00
17364;DHT22;8799;43.594;13.526;2022-07-22T11:16:45;28.10;46.00
17364;DHT22;8799;43.594;13.526;2022-07-22T11:19:14;28.10;46.20
17364;DHT22;8799;43.594;13.526;2022-07-22T11:21:42;28.10;46.00
17364;DHT22;8799;43.594;13.526;2022-07-22T11:24:12;28.10;46.10
17364;DHT22;8799;43.594;13.526;2022-07-22T11:26:40;28.10;46.10
17364;DHT22;8799;43.594;13.526;2022-07-22T11:29:16;28.10;45.50
17364;DHT22;8799;43.594;13.526;2022-07-22T11:31:44;28.10;45.00
17364;DHT22;8799;43.594;13.526;2022-07-22T11:34:14;28.10;45.20
17364;DHT22;8799;43.594;13.526;2022-07-22T11:36:44;28.10;45.20
17364;DHT22;8799;43.594;13.526;2022-07-22T11:39:17;28.10;45.00
17364;DHT22;8799;43.594;13.526;2022-07-22T11:41:45;28.20;44.30
17364;DHT22;8799;43.594;13.526;2022-07-22T11:44:21;28.20;43.80
17364;DHT22;8799;43.594;13.526;2022-07-22T11:46:49;28.20;44.40
17364;DHT22;8799;43.594;13.526;2022-07-22T11:49:20;28.20;44.20
17364;DHT22;8799;43.594;13.526;2022-07-22T11:51:48;28.20;43.70
17364;DHT22;8799;43.594;13.526;2022-07-22T11:54:18;28.20;43.50
17364;DHT22;8799;43.594;13.526;2022-07-22T11:56:46;28.20;43.90
17364;DHT22;8799;43.594;13.526;2022-07-22T11:59:15;28.20;44.20
17364;DHT22;8799;43.594;13.526;2022-07-22T12:01:45;28.30;44.50
17364;DHT22;8799;43.594;13.526;2022-07-22T12:04:15;28.30;44.40
17364;DHT22;8799;43.594;13.526;2022-07-22T12:06:44;28.30;44.40
17364;DHT22;8799;43.594;13.526;2022-07-22T12:09:13;28.40;44.20
17364;DHT22;8799;43.594;13.526;2022-07-22T12:11:44;28.40;44.40
17364;DHT22;8799;43.594;13.526;2022-07-22T12:14:15;28.40;44.60
17364;DHT22;8799;43.594;13.526;2022-07-22T12:16:52;28.40;45.00
17364;DHT22;8799;43.594;13.526;2022-07-22T12:19:25;28.40;45.20
17364;DHT22;8799;43.594;13.526;2022-07-22T12:21:57;28.40;45.50
17364;DHT22;8799;43.594;13.526;2022-07-22T12:24:27;28.50;45.70
17364;DHT22;8799;43.594;13.526;2022-07-22T12:26:58;28.50;46.00
17364;DHT22;8799;43.594;13.526;2022-07-22T12:29:40;28.50;45.20
17364;DHT22;8799;43.594;13.526;2022-07-22T12:32:13;28.60;45.30
17364;DHT22;8799;43.594;13.526;2022-07-22T12:34:44;28.60;45.30
17364;DHT22;8799;43.594;13.526;2022-07-22T12:37:18;28.60;45.20
17364;DHT22;8799;43.594;13.526;2022-07-22T12:39:59;28.60;45.00
17364;DHT22;8799;43.594;13.526;2022-07-22T12:42:31;28.60;45.00
17364;DHT22;8799;43.594;13.526;2022-07-22T12:45:02;28.60;44.50
17364;DHT22;8799;43.594;13.526;2022-07-22T12:47:48;28.70;44.00
17364;DHT22;8799;43.594;13.526;2022-07-22T12:50:27;28.60;43.70
17364;DHT22;8799;43.594;13.526;2022-07-22T12:52:56;28.60;43.60
17364;DHT22;8799;43.594;13.526;2022-07-22T12:55:25;28.60;43.80
17364;DHT22;8799;43.594;13.526;2022-07-22T12:57:55;28.60;43.60
17364;DHT22;8799;43.594;13.526;2022-07-22T13:00:25;28.70;43.70
17364;DHT22;8799;43.594;13.526;2022-07-22T13:02:54;28.70;43.50
17364;DHT22;8799;43.594;13.526;2022-07-22T13:05:23;28.80;43.50
17364;DHT22;8799;43.594;13.526;2022-07-22T13:07:51;28.80;43.70
17364;DHT22;8799;43.594;13.526;2022-07-22T13:10:19;28.80;43.90
17364;DHT22;8799;43.594;13.526;2022-07-22T13:12:47;28.70;43.90
17364;DHT22;8799;43.594;13.526;2022-07-22T13:15:17;28.60;44.10
17364;DHT22;8799;43.594;13.526;2022-07-22T13:17:45;28.60;44.50
17364;DHT22;8799;43.594;13.526;2022-07-22T13:20:17;28.70;44.90
17364;DHT22;8799;43.594;13.526;2022-07-22T13:22:47;28.80;45.70
17364;DHT22;8799;43.594;13.526;2022-07-22T13:25:16;28.80;46.20
17364;DHT22;8799;43.594;13.526;2022-07-22T13:27:44;28.80;46.80
17364;DHT22;8799;43.594;13.526;2022-07-22T13:30:13;28.80;47.60
17364;DHT22;8799;43.594;13.526;2022-07-22T13:32:43;28.80;48.20
17364;DHT22;8799;43.594;13.526;2022-07-22T13:35:11;28.80;49.10
17364;DHT22;8799;43.594;13.526;2022-07-22T13:37:39;28.80;50.00
17364;DHT22;8799;43.594;13.526;2022-07-22T13:40:08;28.80;51.10
17364;DHT22;8799;43.594;13.526;2022-07-22T13:42:35;28.90;52.40
17364;DHT22;8799;43.594;13.526;2022-07-22T13:45:04;28.80;53.00
17364;DHT22;8799;43.594;13.526;2022-07-22T13:47:32;28.80;53.50
17364;DHT22;8799;43.594;13.526;2022-07-22T13:50:01;28.80;53.60
17364;DHT22;8799;43.594;13.526;2022-07-22T13:52:29;28.80;54.10
17364;DHT22;8799;43.594;13.526;2022-07-22T13:54:56;28.90;54.90
17364;DHT22;8799;43.594;13.526;2022-07-22T13:57:24;28.90;54.50
17364;DHT22;8799;43.594;13.526;2022-07-22T13:59:52;29.00;54.90
17364;DHT22;8799;43.594;13.526;2022-07-22T14:02:20;28.90;54.40
17364;DHT22;8799;43.594;13.526;2022-07-22T14:04:50;28.90;54.40
17364;DHT22;8799;43.594;13.526;2022-07-22T14:07:20;28.90;54.50
17364;DHT22;8799;43.594;13.526;2022-07-22T14:09:47;28.90;55.10
17364;DHT22;8799;43.594;13.526;2022-07-22T14:12:15;29.00;56.50
17364;DHT22;8799;43.594;13.526;2022-07-22T14:14:42;29.00;56.60
17364;DHT22;8799;43.594;13.526;2022-07-22T14:17:10;29.00;57.30
17364;DHT22;8799;43.594;13.526;2022-07-22T14:19:37;29.00;57.60
17364;DHT22;8799;43.594;13.526;2022-07-22T14:22:06;29.00;57.60
17364;DHT22;8799;43.594;13.526;2022-07-22T14:24:35;29.00;58.20
17364;DHT22;8799;43.594;13.526;2022-07-22T14:27:03;29.10;58.60
17364;DHT22;8799;43.594;13.526;2022-07-22T14:29:31;29.10;58.20
17364;DHT22;8799;43.594;13.526;2022-07-22T14:31:58;29.10;57.80
17364;DHT22;8799;43.594;13.526;2022-07-22T14:34:26;29.00;57.20
17364;DHT22;8799;43.594;13.526;2022-07-22T14:36:53;29.00;57.00
17364;DHT22;8799;43.594;13.526;2022-07-22T14:39:24;29.00;57.10
17364;DHT22;8799;43.594;13.526;2022-07-22T14:41:53;29.00;57.10
17364;DHT22;8799;43.594;13.526;2022-07-22T14:44:21;29.00;56.90
17364;DHT22;8799;43.594;13.526;2022-07-22T14:46:49;29.00;56.80
17364;DHT22;8799;43.594;13.526;2022-07-22T14:49:17;29.00;57.10
17364;DHT22;8799;43.594;13.526;2022-07-22T14:51:45;29.00;57.20
17364;DHT22;8799;43.594;13.526;2022-07-22T14:54:13;29.00;57.20
17364;DHT22;8799;43.594;13.526;2022-07-22T14:56:40;29.00;57.20
17364;DHT22;8799;43.594;13.526;2022-07-22T14:59:14;29.00;57.30
17364;DHT22;8799;43.594;13.526;2022-07-22T15:01:42;29.00;57.10
17364;DHT22;8799;43.594;13.526;2022-07-22T15:04:12;29.00;57.00
17364;DHT22;8799;43.594;13.526;2022-07-22T15:06:39;29.00;57.10
17364;DHT22;8799;43.594;13.526;2022-07-22T15:09:07;29.00;57.60
17364;DHT22;8799;43.594;13.526;2022-07-22T15:11:35;29.00;58.40
17364;DHT22;8799;43.594;13.526;2022-07-22T15:14:02;29.00;59.00
17364;DHT22;8799;43.594;13.526;2022-07-22T15:16:31;29.00;58.40
17364;DHT22;8799;43.594;13.526;2022-07-22T15:18:59;29.00;57.40
17364;DHT22;8799;43.594;13.526;2022-07-22T15:21:27;29.10;55.70
17364;DHT22;8799;43.594;13.526;2022-07-22T15:23:55;29.10;54.20
17364;DHT22;8799;43.594;13.526;2022-07-22T15:26:22;29.10;53.60
17364;DHT22;8799;43.594;13.526;2022-07-22T15:28:50;29.10;53.80
17364;DHT22;8799;43.594;13.526;2022-07-22T15:31:19;29.10;53.80
17364;DHT22;8799;43.594;13.526;2022-07-22T15:33:48;29.20;53.30
17364;DHT22;8799;43.594;13.526;2022-07-22T15:36:17;29.20;52.70
17364;DHT22;8799;43.594;13.526;2022-07-22T15:38:45;29.20;52.20
17364;DHT22;8799;43.594;13.526;2022-07-22T15:41:12;29.20;51.10
17364;DHT22;8799;43.594;13.526;2022-07-22T15:43:40;29.20;51.30